Time;durP1;ratioP1;P1;durP2;ratioP2;P2;SDS_P1;SDS_P2;PMS_P1;PMS_P2;Temp;Humidity;BMP_temperature;BMP_pressure;BME280_temperature;BME280_humidity;BME280_pressure;Samples;Min_cycle;Max_cycle;Signal;HPM_P1;HPM_P2
2022/06/19 00:00:09;;;;;;;14.40;8.63;;;;;;;24.07;59.75;98737.34;4984274;28;20051;-80
2022/06/19 00:02:37;;;;;;;17.80;8.85;;;;;;;24.03;59.92;98747.66;4979894;28;20056;-73
2022/06/19 00:05:06;;;;;;;21.05;8.30;;;;;;;24.06;60.11;98746.47;4969347;28;20061;-73
2022/06/19 00:07:33;;;;;;;13.80;8.27;;;;;;;24.04;59.86;98735.88;4968935;28;20132;-72
2022/06/19 00:09:59;;;;;;;13.70;8.30;;;;;;;24.06;59.89;98743.75;4968350;28;20047;-73
2022/06/19 00:12:26;;;;;;;17.60;8.05;;;;;;;24.01;59.98;98725.47;4968139;28;20055;-73
2022/06/19 00:14:53;;;;;;;17.35;9.57;;;;;;;23.99;60.24;98733.72;4967726;28;20050;-73
2022/06/19 00:17:19;;;;;;;14.98;8.65;;;;;;;23.97;59.90;98722.34;4967202;28;20055;-72
2022/06/19 00:19:46;;;;;;;26.30;9.25;;;;;;;23.96;60.05;98719.81;4968337;28;20586;-72
2022/06/19 00:22:14;;;;;;;21.27;10.63;;;;;;;23.97;60.21;98711.56;4967443;28;20054;-72
2022/06/19 00:24:41;;;;;;;16.83;9.93;;;;;;;23.97;60.11;98702.63;4967680;28;20055;-73
2022/06/19 00:27:08;;;;;;;16.02;8.57;;;;;;;23.94;59.90;98701.16;4966768;28;20050;-74
2022/06/19 00:29:35;;;;;;;23.02;9.68;;;;;;;23.90;60.06;98693.63;4967038;28;20057;-74
2022/06/19 00:32:04;;;;;;;15.73;8.88;;;;;;;23.86;60.59;98692.38;4967366;28;20061;-74
2022/06/19 00:34:31;;;;;;;20.17;10.02;;;;;;;23.75;61.04;98686.44;4967559;28;20058;-73
2022/06/19 00:37:00;;;;;;;20.65;9.00;;;;;;;23.71;60.89;98686.97;4966195;28;20046;-73
2022/06/19 00:39:31;;;;;;;17.48;9.05;;;;;;;23.70;60.98;98680.75;4967065;28;20046;-73
2022/06/19 00:41:58;;;;;;;17.55;9.85;;;;;;;23.67;61.14;98682.97;4967256;28;20132;-73
2022/06/19 00:44:25;;;;;;;17.42;9.05;;;;;;;23.64;61.34;98669.91;4967046;28;20468;-73
2022/06/19 00:46:54;;;;;;;11.63;7.57;;;;;;;23.61;61.44;98671.09;4966550;28;20061;-73
2022/06/19 00:49:27;;;;;;;18.63;8.93;;;;;;;23.59;61.50;98675.84;4966889;28;20047;-73
2022/06/19 00:52:03;;;;;;;13.90;8.85;;;;;;;23.57;61.89;98664.41;4966963;28;20097;-72
2022/06/19 00:54:37;;;;;;;12.95;9.77;;;;;;;23.55;61.46;98669.16;4966860;28;20052;-73
2022/06/19 00:57:04;;;;;;;9.40;7.22;;;;;;;23.54;61.54;98659.41;4966079;28;20076;-73
2022/06/19 00:59:31;;;;;;;15.63;10.23;;;;;;;23.51;61.77;98657.09;4966677;28;20053;-73
2022/06/19 01:01:58;;;;;;;18.98;10.10;;;;;;;23.48;62.04;98662.84;4959550;28;20042;-73
2022/06/19 01:04:30;;;;;;;17.60;9.98;;;;;;;23.43;62.33;98662.56;4966442;28;20078;-73
2022/06/19 01:06:57;;;;;;;20.80;12.07;;;;;;;23.34;62.62;98651.91;4965968;28;20058;-73
2022/06/19 01:09:24;;;;;;;15.73;10.63;;;;;;;23.30;62.92;98652.47;4965992;28;20865;-73
2022/06/19 01:11:52;;;;;;;12.02;7.47;;;;;;;23.26;62.75;98653.84;4966624;28;20053;-73
2022/06/19 01:14:24;;;;;;;14.80;10.07;;;;;;;23.25;63.04;98655.69;4966144;28;20061;-73
2022/06/19 01:16:51;;;;;;;18.05;10.00;;;;;;;23.19;63.33;98647.56;4965879;28;20061;-72
2022/06/19 01:19:25;;;;;;;15.35;10.60;;;;;;;23.19;63.28;98651.06;4965560;28;20060;-73
2022/06/19 01:21:58;;;;;;;18.45;9.40;;;;;;;23.19;63.13;98640.31;4966118;28;20050;-73
2022/06/19 01:24:42;;;;;;;19.58;9.88;;;;;;;23.18;63.23;98635.94;4966262;28;20061;-72
2022/06/19 01:28:45;;;;;;;15.38;9.27;;;;;;;23.15;63.10;98633.63;4965792;28;20054;-73
2022/06/19 01:30:03;;;;;;;21.33;10.63;;;;;;;23.11;63.65;98621.56;4966016;28;20050;-73
2022/06/19 01:32:30;;;;;;;17.33;9.98;;;;;;;23.08;63.54;98622.75;4965827;28;20529;-73
2022/06/19 01:34:58;;;;;;;12.27;9.75;;;;;;;23.06;63.40;98630.22;4966399;28;20051;-73
2022/06/19 01:37:27;;;;;;;28.13;11.55;;;;;;;23.05;63.79;98641.13;4965301;28;20054;-74
2022/06/19 01:39:57;;;;;;;20.67;10.32;;;;;;;23.05;63.56;98641.13;4965934;28;20628;-73
2022/06/19 01:42:25;;;;;;;26.52;11.65;;;;;;;23.02;63.79;98638.81;4965840;28;20078;-74
2022/06/19 01:44:54;;;;;;;13.55;8.82;;;;;;;22.98;63.67;98629.44;4965872;28;20135;-74
2022/06/19 01:47:23;;;;;;;15.07;9.10;;;;;;;22.96;63.82;98623.38;4965449;28;20053;-74
2022/06/19 01:49:53;;;;;;;14.90;10.32;;;;;;;22.92;64.09;98623.75;4965560;28;20090;-74
2022/06/19 01:52:21;;;;;;;19.83;10.43;;;;;;;22.84;64.47;98618.47;4965482;28;20135;-74
2022/06/19 01:54:52;;;;;;;16.08;10.02;;;;;;;22.80;64.57;98625.22;4966053;28;20051;-74
2022/06/19 01:57:19;;;;;;;16.17;10.07;;;;;;;22.78;64.85;98632.63;4959799;28;20129;-73
2022/06/19 01:59:48;;;;;;;19.33;12.65;;;;;;;22.71;65.03;98629.81;4965600;28;20489;-74
2022/06/19 02:02:17;;;;;;;21.65;11.48;;;;;;;22.64;65.48;98623.53;4965649;28;20611;-74
2022/06/19 02:04:44;;;;;;;18.00;9.95;;;;;;;22.59;65.45;98614.31;4966006;28;20743;-74
2022/06/19 02:07:15;;;;;;;20.55;10.57;;;;;;;22.54;65.82;98605.97;4968779;28;20049;-74
2022/06/19 02:09:42;;;;;;;16.50;9.95;;;;;;;22.42;66.16;98605.56;4965505;28;20054;-74
2022/06/19 02:12:11;;;;;;;15.05;10.02;;;;;;;22.36;66.31;98617.88;4965653;28;20061;-73
2022/06/19 02:14:38;;;;;;;18.13;9.98;;;;;;;22.29;66.72;98619.59;4972040;28;20046;-73
2022/06/19 02:17:12;;;;;;;13.57;9.90;;;;;;;22.28;66.39;98626.81;4976935;28;20056;-73
2022/06/19 02:19:38;;;;;;;18.00;10.23;;;;;;;22.27;66.74;98629.66;4946439;28;20511;-73
2022/06/19 02:22:11;;;;;;;16.90;10.23;;;;;;;22.19;67.25;98637.75;4948033;28;20138;-74
2022/06/19 02:24:38;;;;;;;17.50;10.48;;;;;;;22.15;67.59;98656.09;4950276;28;20050;-73
2022/06/19 02:27:06;;;;;;;15.95;10.73;;;;;;;22.13;67.42;98671.53;4959259;28;20131;-73
2022/06/19 02:29:35;;;;;;;16.58;10.10;;;;;;;22.07;67.70;98729.41;4969130;28;20600;-74
2022/06/19 02:32:03;;;;;;;19.40;12.82;;;;;;;22.01;67.83;98746.25;4969413;28;20053;-74
2022/06/19 02:34:36;;;;;;;13.38;10.40;;;;;;;21.87;67.87;98688.75;4969314;28;20050;-74
2022/06/19 02:37:05;;;;;;;9.55;7.65;;;;;;;21.70;67.76;98700.56;4968709;28;20141;-74
2022/06/19 02:39:39;;;;;;;13.65;7.50;;;;;;;21.53;68.29;98764.16;4969078;28;20054;-73
2022/06/19 02:42:33;;;;;;;13.60;6.70;;;;;;;21.25;67.75;98757.47;4969105;28;20718;-74
2022/06/19 02:45:02;;;;;;;7.88;4.57;;;;;;;21.00;66.99;98701.22;4973283;28;20063;-74
2022/06/19 02:47:32;;;;;;;10.23;4.55;;;;;;;20.80;66.95;98704.22;4968638;28;20051;-74
2022/06/19 02:50:00;;;;;;;9.60;3.88;;;;;;;20.66;67.29;98763.00;4968654;28;20069;-73
2022/06/19 02:52:26;;;;;;;8.38;3.80;;;;;;;20.59;66.91;98789.59;4970002;28;20557;-73
2022/06/19 02:54:53;;;;;;;16.38;4.20;;;;;;;20.45;66.12;98718.72;4970057;28;20054;-74
2022/06/19 02:57:20;;;;;;;7.07;3.33;;;;;;;20.32;66.13;98754.00;4968186;28;20131;-73
2022/06/19 02:59:46;;;;;;;10.70;3.28;;;;;;;20.13;66.19;98821.16;4969625;28;20081;-74
2022/06/19 03:02:14;;;;;;;7.10;3.60;;;;;;;20.03;66.41;98759.75;4970484;28;20133;-74
2022/06/19 03:04:48;;;;;;;6.28;3.05;;;;;;;19.75;66.85;98846.56;4969297;28;20049;-73
2022/06/19 03:07:16;;;;;;;7.53;2.97;;;;;;;19.66;66.74;98779.59;4980540;28;20061;-73
2022/06/19 03:09:43;;;;;;;5.93;3.35;;;;;;;19.53;66.84;98854.06;4988625;28;20042;-73
2022/06/19 03:12:11;;;;;;;11.27;4.03;;;;;;;19.52;66.06;98855.91;4968430;28;20766;-73
2022/06/19 03:14:38;;;;;;;8.20;3.35;;;;;;;19.49;65.25;98831.28;4968472;28;20046;-73
2022/06/19 03:17:04;;;;;;;7.85;3.00;;;;;;;19.40;65.44;98842.94;4967699;28;21094;-73
2022/06/19 03:19:31;;;;;;;7.85;3.00;;;;;;;19.37;64.06;98852.09;4968064;28;20076;-73
2022/06/19 03:21:57;;;;;;;7.82;3.92;;;;;;;19.31;63.99;98869.56;4968498;28;20096;-74
2022/06/19 03:24:26;;;;;;;9.02;3.90;;;;;;;19.18;63.28;98903.03;4968104;28;20057;-73
2022/06/19 03:26:53;;;;;;;7.82;3.20;;;;;;;19.06;63.04;98902.41;4967342;28;20055;-73
2022/06/19 03:29:20;;;;;;;11.68;3.15;;;;;;;18.92;62.84;98906.44;4968212;28;20051;-73
2022/06/19 03:31:46;;;;;;;13.13;4.53;;;;;;;18.79;63.00;98935.34;4968131;28;20055;-72
2022/06/19 03:34:13;;;;;;;9.65;3.63;;;;;;;18.66;62.95;98914.31;4968542;28;20061;-73
2022/06/19 03:36:39;;;;;;;11.80;4.40;;;;;;;18.61;62.93;98943.28;4967766;28;20047;-72
2022/06/19 03:39:06;;;;;;;13.50;3.90;;;;;;;18.52;62.94;98918.28;4967868;28;20702;-73
2022/06/19 03:41:34;;;;;;;13.35;4.20;;;;;;;18.45;63.02;98922.53;4967952;28;20055;-72
2022/06/19 03:44:00;;;;;;;9.10;3.90;;;;;;;18.40;63.08;98940.81;4967949;28;20056;-72
2022/06/19 03:46:27;;;;;;;17.13;4.68;;;;;;;18.39;63.29;98942.66;4967078;28;20086;-74
2022/06/19 03:48:54;;;;;;;17.77;4.72;;;;;;;18.40;63.23;98948.81;4967940;28;20682;-72
2022/06/19 03:51:22;;;;;;;14.40;5.20;;;;;;;18.30;62.21;98948.84;4967512;28;20051;-72
2022/06/19 03:53:49;;;;;;;13.43;4.18;;;;;;;18.21;62.75;98963.06;4967513;28;20057;-73
2022/06/19 03:56:20;;;;;;;16.08;3.97;;;;;;;18.19;62.55;98973.06;4966906;28;20421;-72
2022/06/19 03:58:48;;;;;;;9.70;4.40;;;;;;;18.21;61.17;98971.06;4967779;28;20523;-72
2022/06/19 04:01:16;;;;;;;6.78;3.58;;;;;;;18.13;61.07;98970.94;4967535;28;20072;-72
2022/06/19 04:03:43;;;;;;;12.00;4.07;;;;;;;18.01;61.22;98962.25;4968160;28;20055;-72
2022/06/19 04:06:12;;;;;;;15.82;4.82;;;;;;;17.85;60.66;98954.03;4978493;28;20054;-72
2022/06/19 04:08:39;;;;;;;14.23;5.57;;;;;;;17.69;60.90;98944.72;4986527;28;20058;-72
2022/06/19 04:11:07;;;;;;;13.65;4.60;;;;;;;17.47;61.19;98940.53;4986594;28;20054;-72
2022/06/19 04:13:34;;;;;;;24.15;4.88;;;;;;;17.41;61.19;98950.91;4986804;28;20050;-71
2022/06/19 04:16:03;;;;;;;9.15;4.18;;;;;;;17.32;60.72;98945.44;4986353;28;20051;-72
2022/06/19 04:18:30;;;;;;;17.90;6.10;;;;;;;17.32;60.97;98942.75;4986192;28;20061;-73
2022/06/19 04:20:57;;;;;;;14.30;5.28;;;;;;;17.28;60.86;98953.88;4986130;28;20581;-72
2022/06/19 04:23:24;;;;;;;13.02;4.35;;;;;;;17.37;60.94;98934.34;4986423;28;20054;-59
2022/06/19 04:25:52;;;;;;;15.50;4.53;;;;;;;17.48;60.86;98947.56;4986279;28;20138;-50
2022/06/19 04:28:22;;;;;;;13.48;5.18;;;;;;;17.79;60.60;98926.91;4986522;28;20062;-51
2022/06/19 04:30:48;;;;;;;7.97;3.47;;;;;;;18.01;60.16;98928.44;4986667;28;20065;-46
2022/06/19 04:33:18;;;;;;;17.95;4.72;;;;;;;18.00;58.42;98908.09;4986631;28;20065;-46
2022/06/19 04:35:45;;;;;;;18.45;5.53;;;;;;;17.94;58.90;98927.34;4967239;28;20071;-50
2022/06/19 04:38:12;;;;;;;17.58;5.55;;;;;;;17.97;59.00;98919.06;4970543;28;20051;-50
2022/06/19 04:40:39;;;;;;;14.70;4.28;;;;;;;17.97;58.09;98961.72;4966725;28;20046;-50
2022/06/19 04:43:06;;;;;;;12.30;4.35;;;;;;;17.80;58.92;98989.94;4966944;28;21088;-50
2022/06/19 04:45:34;;;;;;;10.43;4.85;;;;;;;17.68;58.60;98998.19;4966479;28;20065;-44
2022/06/19 04:48:00;;;;;;;10.75;4.72;;;;;;;17.82;58.41;98960.50;4966252;28;20050;-48
2022/06/19 04:50:28;;;;;;;12.75;4.60;;;;;;;17.92;57.57;98934.63;4966331;28;20062;-48
2022/06/19 04:52:55;;;;;;;11.00;4.53;;;;;;;17.96;57.44;98937.84;4953491;28;20051;-48
2022/06/19 04:55:22;;;;;;;13.82;3.88;;;;;;;17.93;57.21;98938.16;4966127;28;20055;-45
2022/06/19 04:57:48;;;;;;;14.20;4.28;;;;;;;17.93;56.74;98943.47;4965907;28;20055;-47
2022/06/19 05:00:19;;;;;;;12.90;3.67;;;;;;;17.94;56.78;98955.81;4967075;28;20051;-46
2022/06/19 05:02:49;;;;;;;11.15;4.10;;;;;;;17.95;56.24;98944.19;4974935;28;20478;-48
2022/06/19 05:05:18;;;;;;;14.82;3.80;;;;;;;17.90;56.08;98946.44;4966743;28;20058;-51
2022/06/19 05:07:46;;;;;;;20.30;4.88;;;;;;;17.78;57.24;98951.03;4965807;28;20054;-45
2022/06/19 05:10:13;;;;;;;11.63;3.40;;;;;;;17.80;56.54;98943.78;4966043;28;20126;-48
2022/06/19 05:12:39;;;;;;;16.02;5.45;;;;;;;17.83;55.89;98948.81;4966131;28;20517;-46
2022/06/19 05:15:08;;;;;;;11.20;3.60;;;;;;;17.71;56.66;98933.94;4966101;28;20057;-49
2022/06/19 05:17:34;;;;;;;16.38;5.53;;;;;;;17.80;56.47;98939.28;4965316;28;20061;-49
2022/06/19 05:20:02;;;;;;;16.73;5.15;;;;;;;17.71;56.30;98923.28;4966283;28;20056;-45
2022/06/19 05:22:30;;;;;;;15.65;4.82;;;;;;;17.76;56.33;98905.84;4966021;28;20058;-46
2022/06/19 05:24:58;;;;;;;11.05;4.90;;;;;;;17.73;56.40;98879.50;4965958;28;20050;-47
2022/06/19 05:27:25;;;;;;;14.88;4.53;;;;;;;17.43;57.09;98899.16;4965380;28;20055;-53
2022/06/19 05:29:51;;;;;;;16.38;5.68;;;;;;;17.30;57.38;98895.94;4966218;28;20054;-46
2022/06/19 05:32:18;;;;;;;9.98;4.18;;;;;;;17.23;57.99;98892.13;4966179;28;20081;-50
2022/06/19 05:34:45;;;;;;;15.27;5.68;;;;;;;17.30;57.26;98899.47;4966277;28;20061;-47
2022/06/19 05:37:12;;;;;;;15.38;4.43;;;;;;;17.35;57.22;98893.69;4965231;28;20396;-47
2022/06/19 05:39:38;;;;;;;14.30;4.57;;;;;;;17.46;57.11;98890.06;4965746;28;20059;-49
2022/06/19 05:42:07;;;;;;;8.98;3.80;;;;;;;17.57;56.96;98889.88;4966124;28;20065;-44
2022/06/19 05:44:34;;;;;;;14.27;5.47;;;;;;;17.87;55.92;98890.69;4965954;28;20082;-46
2022/06/19 05:47:00;;;;;;;15.23;5.32;;;;;;;17.83;55.97;98873.34;4965271;28;20053;-51
2022/06/19 05:49:27;;;;;;;21.15;5.60;;;;;;;17.62;56.58;98884.97;4965777;28;20050;-49
2022/06/19 05:51:53;;;;;;;11.75;4.43;;;;;;;17.57;56.59;98882.75;4965861;28;20057;-46
2022/06/19 05:54:20;;;;;;;20.25;6.43;;;;;;;17.53;56.25;98886.69;4965985;28;20053;-47
2022/06/19 05:56:47;;;;;;;18.05;4.53;;;;;;;17.63;56.43;98889.31;4964701;28;20051;-44
2022/06/19 05:59:15;;;;;;;18.63;8.02;;;;;;;17.63;56.27;98881.34;4980755;28;20053;-45
2022/06/19 06:01:41;;;;;;;17.17;4.05;;;;;;;17.56;56.22;98873.06;4961481;28;20055;-51
2022/06/19 06:04:09;;;;;;;14.77;5.10;;;;;;;17.62;56.02;98884.97;4935362;28;20149;-48
2022/06/19 06:06:35;;;;;;;13.30;5.30;;;;;;;17.92;55.03;98880.47;4945896;28;20043;-45
2022/06/19 06:09:02;;;;;;;17.60;6.78;;;;;;;17.92;54.78;98881.31;4946335;28;20047;-50
2022/06/19 06:11:29;;;;;;;14.88;5.20;;;;;;;18.08;54.77;98883.34;4946112;28;20450;-48
2022/06/19 06:13:55;;;;;;;10.95;4.45;;;;;;;18.15;54.64;98903.13;4946341;28;20059;-50
2022/06/19 06:16:24;;;;;;;11.15;4.15;;;;;;;18.31;54.12;98891.00;4945823;28;20074;-47
2022/06/19 06:18:50;;;;;;;10.27;4.07;;;;;;;18.29;53.58;98882.31;4958365;28;20043;-46
2022/06/19 06:21:19;;;;;;;12.88;4.32;;;;;;;18.29;53.51;98883.16;4965584;28;20047;-48
2022/06/19 06:23:46;;;;;;;11.70;3.65;;;;;;;18.14;53.73;98882.78;4965476;28;20441;-46
2022/06/19 06:26:15;;;;;;;14.73;3.83;;;;;;;18.40;52.15;98900.78;4964508;28;20105;-48
2022/06/19 06:28:44;;;;;;;13.02;4.20;;;;;;;18.40;52.47;98882.94;4959930;28;20533;-47
2022/06/19 06:31:10;;;;;;;13.80;4.53;;;;;;;18.52;52.89;98894.28;4965300;28;20061;-51
2022/06/19 06:33:39;;;;;;;23.38;7.82;;;;;;;18.55;52.99;98903.81;4965280;28;20518;-53
2022/06/19 06:36:06;;;;;;;17.02;5.20;;;;;;;18.24;54.71;98896.94;4964654;28;20055;-52
2022/06/19 06:38:33;;;;;;;12.70;4.30;;;;;;;18.49;54.69;98904.41;4965606;28;20051;-52
2022/06/19 06:40:59;;;;;;;9.00;4.05;;;;;;;18.82;54.00;98924.34;4965214;28;20055;-48
2022/06/19 06:43:26;;;;;;;19.20;5.43;;;;;;;19.03;53.62;98948.97;4964959;28;20134;-44
2022/06/19 06:45:53;;;;;;;10.30;3.17;;;;;;;19.21;53.97;98998.94;4964851;28;20077;-46
2022/06/19 06:48:20;;;;;;;11.27;4.43;;;;;;;19.32;53.65;99025.47;4965509;28;20057;-49
2022/06/19 06:50:48;;;;;;;20.35;6.03;;;;;;;19.36;54.00;99131.06;4965385;28;20388;-52
2022/06/19 06:53:17;;;;;;;11.70;5.57;;;;;;;19.46;53.62;99098.94;4965423;28;20062;-47
2022/06/19 06:55:45;;;;;;;16.35;6.03;;;;;;;19.46;53.48;99163.09;4964708;28;20090;-52
2022/06/19 06:58:12;;;;;;;17.75;6.15;;;;;;;19.58;53.30;99142.38;4963896;28;20059;-51
2022/06/19 07:00:40;;;;;;;15.23;4.43;;;;;;;19.68;52.93;99145.84;4949578;28;20051;-49
2022/06/19 07:03:07;;;;;;;16.20;4.82;;;;;;;19.62;53.17;99179.34;4945814;28;20150;-49
2022/06/19 07:05:33;;;;;;;16.73;5.85;;;;;;;19.61;53.39;99156.25;4935244;28;20055;-47
2022/06/19 07:08:02;;;;;;;11.32;4.95;;;;;;;19.68;52.95;99109.25;4946776;28;20051;-48
2022/06/19 07:10:29;;;;;;;8.02;4.05;;;;;;;19.69;53.03;99143.03;4948790;28;20047;-51
2022/06/19 07:12:55;;;;;;;17.73;5.40;;;;;;;19.77;52.53;99136.09;4949121;28;20051;-52
2022/06/19 07:15:22;;;;;;;17.23;4.18;;;;;;;19.80;52.35;99106.38;4949318;28;20051;-49
2022/06/19 07:17:48;;;;;;;10.57;3.85;;;;;;;19.97;51.55;99110.06;4953032;28;20043;-48
2022/06/19 07:20:15;;;;;;;14.05;5.15;;;;;;;20.21;50.91;99121.00;4968378;28;20054;-49
2022/06/19 07:22:42;;;;;;;10.60;3.63;;;;;;;20.24;50.34;99111.81;4968150;28;20057;-55
2022/06/19 07:25:16;;;;;;;10.85;3.90;;;;;;;20.12;49.87;99122.75;4968389;28;20523;-51
2022/06/19 07:27:43;;;;;;;10.80;5.20;;;;;;;20.01;49.58;99100.72;4967956;28;20055;-49
2022/06/19 07:30:14;;;;;;;16.85;4.72;;;;;;;19.93;49.21;99125.56;4968338;28;20143;-48
2022/06/19 07:32:41;;;;;;;10.43;4.25;;;;;;;19.75;48.90;99111.34;4968173;28;20046;-72
2022/06/19 07:35:09;;;;;;;15.55;5.28;;;;;;;19.70;49.52;99103.75;4967812;28;20063;-72
2022/06/19 07:37:35;;;;;;;15.82;4.47;;;;;;;19.65;49.36;99106.00;4967834;28;20049;-72
2022/06/19 07:40:02;;;;;;;10.77;4.65;;;;;;;19.65;48.71;99111.38;4962785;28;20051;-72
2022/06/19 07:42:30;;;;;;;15.05;4.88;;;;;;;19.82;48.00;99110.56;4967875;28;20145;-73
2022/06/19 07:44:57;;;;;;;11.82;3.70;;;;;;;19.81;47.86;99108.88;4967700;28;20055;-73
2022/06/19 07:50:11;;;;;;;14.90;4.75;;;;;;;20.12;46.40;99103.16;4968123;28;20062;-73
2022/06/19 07:52:38;;;;;;;11.75;3.40;;;;;;;20.09;45.91;99100.81;4986901;28;20054;-73
2022/06/19 07:55:06;;;;;;;12.82;4.13;;;;;;;20.07;46.19;99124.19;4987256;28;20510;-73
2022/06/19 07:57:34;;;;;;;12.80;4.05;;;;;;;20.19;45.23;99157.78;4986769;28;20062;-72
2022/06/19 08:00:01;;;;;;;11.32;3.38;;;;;;;20.44;45.00;99182.09;4987211;28;20538;-72
2022/06/19 08:02:28;;;;;;;7.53;3.50;;;;;;;20.52;44.67;99183.00;4987231;28;20137;-72
2022/06/19 08:04:55;;;;;;;9.32;3.22;;;;;;;20.58;45.27;99171.72;4987100;28;20072;-72
2022/06/19 08:07:21;;;;;;;10.10;3.58;;;;;;;20.71;44.46;99168.63;4986392;28;20076;-72
2022/06/19 08:09:48;;;;;;;12.23;4.78;;;;;;;20.81;44.18;99152.47;4976349;28;20054;-73
2022/06/19 08:12:14;;;;;;;15.10;3.63;;;;;;;20.89;43.95;99143.63;4986573;28;20054;-73
2022/06/19 08:14:42;;;;;;;10.75;3.75;;;;;;;20.98;43.36;99106.00;4986465;28;20078;-73
2022/06/19 08:17:09;;;;;;;10.93;3.67;;;;;;;21.00;43.65;99111.22;4985891;28;20430;-73
2022/06/19 08:19:36;;;;;;;13.27;4.40;;;;;;;20.97;43.87;99138.34;4985517;28;20054;-73
2022/06/19 08:22:03;;;;;;;32.05;5.93;;;;;;;20.90;43.65;99118.53;4986642;28;20050;-72
2022/06/19 08:24:29;;;;;;;11.45;3.85;;;;;;;20.77;44.43;99118.94;4986601;28;20566;-72
2022/06/19 08:26:57;;;;;;;13.75;5.20;;;;;;;20.77;44.10;99122.47;4985252;28;20710;-72
2022/06/19 08:29:23;;;;;;;11.35;5.25;;;;;;;20.83;44.31;99122.84;4986334;28;20061;-71
2022/06/19 08:31:51;;;;;;;11.68;4.13;;;;;;;20.85;43.93;99121.69;4986295;28;20054;-72
2022/06/19 08:34:18;;;;;;;14.63;6.80;;;;;;;20.85;44.04;99108.28;4986108;28;20050;-72
2022/06/19 08:36:44;;;;;;;12.60;4.05;;;;;;;20.70;43.85;99108.03;4985593;28;20054;-72
2022/06/19 08:39:15;;;;;;;8.20;4.10;;;;;;;20.52;44.43;99110.69;4985996;28;20054;-73
2022/06/19 08:42:06;;;;;;;15.35;4.70;;;;;;;20.35;44.87;99109.75;4985484;28;20046;-72
2022/06/19 08:44:57;;;;;;;9.45;4.90;;;;;;;20.05;45.36;99110.97;4985567;28;20076;-72
2022/06/19 08:47:44;;;;;;;16.50;6.50;;;;;;;19.95;46.04;99105.69;4983325;28;20074;-72
2022/06/19 08:50:22;;;;;;;10.40;4.30;;;;;;;20.13;45.76;99118.22;4978445;28;20073;-72
2022/06/19 08:53:04;;;;;;;16.15;4.15;;;;;;;20.12;45.41;99129.94;4986039;28;20141;-73
2022/06/19 08:55:45;;;;;;;9.52;4.82;;;;;;;20.19;46.60;99114.13;4985994;28;20053;-51
2022/06/19 08:58:22;;;;;;;9.55;5.07;;;;;;;20.26;45.78;99088.41;4985469;28;20140;-52
2022/06/19 09:00:54;;;;;;;9.07;3.92;;;;;;;20.04;45.97;99074.50;4985770;28;20056;-52
2022/06/19 09:05:36;;;;;;;15.10;5.32;;;;;;;19.82;46.15;99077.66;4981197;28;20073;-52
2022/06/19 09:06:29;;;;;;;21.50;5.20;;;;;;;19.82;46.53;99083.81;4979119;28;20094;-47
2022/06/19 09:09:07;;;;;;;9.38;4.47;;;;;;;20.17;47.41;99071.44;4985266;28;20054;-52
2022/06/19 09:11:45;;;;;;;20.00;6.00;;;;;;;20.32;45.10;99080.59;4985376;28;20056;-50
2022/06/19 09:14:26;;;;;;;10.10;5.03;;;;;;;20.59;44.63;99046.66;4978376;28;20133;-55
2022/06/19 09:17:01;;;;;;;11.20;4.60;;;;;;;20.86;44.28;99036.78;4985206;28;20138;-56
2022/06/19 09:19:42;;;;;;;15.32;4.38;;;;;;;20.82;43.98;99022.00;4983637;28;20053;-52
2022/06/19 09:22:29;;;;;;;15.48;5.63;;;;;;;20.59;44.86;99033.28;4985726;28;20434;-54
2022/06/19 09:25:09;;;;;;;11.52;4.63;;;;;;;20.68;45.55;99029.66;4966523;28;20410;-52
2022/06/19 09:27:43;;;;;;;10.13;4.53;;;;;;;20.98;44.25;99059.63;4965406;28;20074;-58
2022/06/19 09:30:16;;;;;;;15.48;4.72;;;;;;;21.02;44.61;99079.75;4965997;28;20055;-54
2022/06/19 09:32:46;;;;;;;13.25;4.47;;;;;;;20.79;44.29;99007.94;4966286;28;20056;-58
2022/06/19 09:35:19;;;;;;;11.35;4.65;;;;;;;20.42;45.62;99016.22;4966051;28;20051;-56
2022/06/19 09:37:51;;;;;;;14.88;5.78;;;;;;;20.34;46.31;98934.03;4965490;28;20057;-54
2022/06/19 09:40:29;;;;;;;22.15;7.55;;;;;;;19.83;50.22;98871.50;4966194;28;20054;-58
2022/06/19 09:43:00;;;;;;;11.23;5.45;;;;;;;19.86;50.88;98921.19;4969591;28;20150;-55
2022/06/19 09:45:32;;;;;;;11.95;5.60;;;;;;;20.08;49.59;98872.53;4975665;28;20787;-53
2022/06/19 09:48:06;;;;;;;14.95;5.18;;;;;;;19.83;50.45;98799.28;4970139;28;20141;-58
2022/06/19 09:50:40;;;;;;;14.23;4.07;;;;;;;19.82;50.67;98784.25;4966176;28;20042;-56
2022/06/19 09:53:13;;;;;;;10.45;4.63;;;;;;;20.01;49.46;98769.81;4965737;28;20050;-56
2022/06/19 09:55:44;;;;;;;13.45;5.55;;;;;;;20.13;48.69;98740.88;4966016;28;20054;-54
2022/06/19 09:58:14;;;;;;;11.98;5.03;;;;;;;19.80;49.16;98722.06;4965172;28;20106;-55
2022/06/19 10:00:44;;;;;;;10.90;5.32;;;;;;;20.11;49.18;98756.31;4959763;28;20470;-56
2022/06/19 10:03:19;;;;;;;14.25;4.35;;;;;;;20.46;48.49;98765.09;4965476;28;20054;-53
2022/06/19 10:05:51;;;;;;;;;;;;;;;20.75;47.08;98804.84;4966061;28;20057;-51
2022/06/19 10:08:22;;;;;;;17.90;5.40;;;;;;;20.77;47.11;98894.78;4959647;28;19933;-53
2022/06/19 10:10:52;;;;;;;16.23;6.85;;;;;;;20.93;46.71;98925.28;4975792;28;20054;-53
2022/06/19 10:13:30;;;;;;;12.90;5.05;;;;;;;20.82;47.15;98933.59;4984953;28;20518;-51
2022/06/19 10:15:59;;;;;;;12.05;6.25;;;;;;;20.98;46.28;98917.59;4967988;28;20043;-57
2022/06/19 10:18:31;;;;;;;18.98;5.22;;;;;;;21.07;46.34;98903.22;4959665;28;20410;-55
2022/06/19 10:22:13;;;;;;;15.23;4.38;;;;;;;21.09;46.09;98970.03;4962336;28;20046;-57
2022/06/19 10:24:07;;;;;;;23.95;5.18;;;;;;;21.18;46.19;99009.28;4965336;28;20137;-56
2022/06/19 10:26:42;;;;;;;11.65;5.57;;;;;;;21.17;46.20;98951.31;4964523;28;20057;-55
2022/06/19 10:29:34;;;;;;;13.90;4.43;;;;;;;21.44;45.18;98995.81;4965204;28;20146;-70
2022/06/19 10:32:14;;;;;;;15.70;4.72;;;;;;;21.63;45.41;99022.34;4965299;28;20586;-69
2022/06/19 10:34:51;;;;;;;12.10;3.75;;;;;;;21.95;44.65;99007.25;4965005;28;20050;-69
2022/06/19 10:37:31;;;;;;;6.75;3.60;;;;;;;22.48;43.30;99031.94;4953723;28;20137;-69
2022/06/19 10:40:12;;;;;;;8.35;3.30;;;;;;;22.63;42.71;99019.47;4947956;28;20058;-69
2022/06/19 10:42:46;;;;;;;12.63;4.78;;;;;;;22.36;42.98;99019.84;4979323;28;20050;-70
2022/06/19 10:45:24;;;;;;;10.52;5.18;;;;;;;22.34;42.52;99006.59;4963346;28;20058;-70
2022/06/19 10:48:06;;;;;;;10.88;4.07;;;;;;;22.61;42.34;98977.66;4968413;28;20065;-70
2022/06/19 10:50:44;;;;;;;11.43;4.10;;;;;;;22.68;42.19;98957.16;4969003;28;20073;-69
2022/06/19 10:53:25;;;;;;;12.57;5.60;;;;;;;22.25;42.82;98945.88;4969766;28;20660;-69
2022/06/19 10:55:57;;;;;;;11.68;4.65;;;;;;;21.63;44.50;98925.78;4968752;28;20158;-69
2022/06/19 10:58:26;;;;;;;10.57;4.53;;;;;;;21.25;45.26;98926.38;4975650;28;20056;-74
2022/06/19 11:00:55;;;;;;;7.28;4.03;;;;;;;21.68;45.07;98956.59;4988066;28;20606;-73
2022/06/19 11:06:21;;;;;;;10.13;4.35;;;;;;;22.22;43.27;98949.72;4987433;28;20066;-73
2022/06/19 11:08:54;;;;;;;8.20;3.72;;;;;;;21.88;43.96;98944.53;4987987;28;20121;-71
2022/06/19 11:11:23;;;;;;;15.05;4.53;;;;;;;21.60;44.77;98923.41;4987649;28;20398;-72
2022/06/19 11:14:07;;;;;;;19.27;5.07;;;;;;;21.45;45.45;98938.47;4987976;28;20046;-73
2022/06/19 11:16:35;;;;;;;15.45;5.22;;;;;;;21.59;44.99;98959.28;4986945;28;20050;-72
2022/06/19 11:19:03;;;;;;;8.50;4.50;;;;;;;21.88;45.07;98966.00;4988211;28;20054;-71
2022/06/19 11:21:34;;;;;;;12.85;5.28;;;;;;;21.70;45.10;98968.84;4987855;28;20042;-72
2022/06/19 11:24:05;;;;;;;18.83;7.20;;;;;;;21.53;45.45;98978.72;4987930;28;20057;-74
2022/06/19 11:26:37;;;;;;;8.82;4.15;;;;;;;21.64;45.77;98990.97;4987338;28;20144;-72
2022/06/19 11:29:10;;;;;;;14.93;5.05;;;;;;;21.85;45.24;98983.25;4967877;28;20079;-74
2022/06/19 11:31:40;;;;;;;16.73;4.82;;;;;;;22.12;44.53;98981.25;4968196;28;20055;-72
2022/06/19 11:37:10;;;;;;;12.73;5.07;;;;;;;21.97;44.93;99007.94;4971049;28;20054;-71
2022/06/19 11:39:41;;;;;;;9.80;4.82;;;;;;;22.21;44.45;99014.34;4960384;28;20070;-71
2022/06/19 11:42:27;;;;;;;15.65;6.53;;;;;;;22.31;43.97;99006.09;4948804;28;20404;-72
2022/06/19 11:44:56;;;;;;;14.27;5.78;;;;;;;22.59;43.96;98991.25;4948830;28;20051;-71
2022/06/19 11:47:29;;;;;;;12.80;4.70;;;;;;;22.77;43.62;98984.84;4949315;28;20410;-72